sensor_id;sensor_type;location;lat;lon;timestamp;P1;durP1;ratioP1;P2;durP2;ratioP2
69951;SDS011;60406;48.408;13.392;2022-12-18T00:03:38;86.03;;;39.30;;
69951;SDS011;60406;48.408;13.392;2022-12-18T00:08:40;86.82;;;40.53;;
69951;SDS011;60406;48.408;13.392;2022-12-18T00:13:41;89.13;;;40.25;;
69951;SDS011;60406;48.408;13.392;2022-12-18T00:18:42;93.78;;;42.20;;
69951;SDS011;60406;48.408;13.392;2022-12-18T00:23:43;87.47;;;41.65;;
69951;SDS011;60406;48.408;13.392;2022-12-18T00:28:45;93.00;;;40.67;;
69951;SDS011;60406;48.408;13.392;2022-12-18T00:33:46;86.35;;;38.58;;
69951;SDS011;60406;48.408;13.392;2022-12-18T00:38:47;83.07;;;38.05;;
69951;SDS011;60406;48.408;13.392;2022-12-18T00:43:48;88.07;;;39.72;;
69951;SDS011;60406;48.408;13.392;2022-12-18T00:48:49;93.05;;;41.50;;
69951;SDS011;60406;48.408;13.392;2022-12-18T00:53:51;90.15;;;40.78;;
69951;SDS011;60406;48.408;13.392;2022-12-18T00:58:52;83.00;;;38.50;;
69951;SDS011;60406;48.408;13.392;2022-12-18T01:03:53;89.53;;;41.30;;
69951;SDS011;60406;48.408;13.392;2022-12-18T01:08:54;85.43;;;39.70;;
69951;SDS011;60406;48.408;13.392;2022-12-18T01:13:55;90.13;;;40.42;;
69951;SDS011;60406;48.408;13.392;2022-12-18T01:18:56;96.15;;;42.90;;
69951;SDS011;60406;48.408;13.392;2022-12-18T01:23:57;86.38;;;40.33;;
69951;SDS011;60406;48.408;13.392;2022-12-18T01:28:58;74.28;;;36.80;;
69951;SDS011;60406;48.408;13.392;2022-12-18T01:34:02;93.28;;;42.38;;
69951;SDS011;60406;48.408;13.392;2022-12-18T01:39:04;97.93;;;43.22;;
69951;SDS011;60406;48.408;13.392;2022-12-18T01:44:46;93.30;;;43.00;;
69951;SDS011;60406;48.408;13.392;2022-12-18T01:49:47;90.65;;;39.75;;
69951;SDS011;60406;48.408;13.392;2022-12-18T01:54:48;88.97;;;38.42;;
69951;SDS011;60406;48.408;13.392;2022-12-18T01:59:51;96.03;;;43.75;;
69951;SDS011;60406;48.408;13.392;2022-12-18T02:04:53;97.82;;;44.05;;
69951;SDS011;60406;48.408;13.392;2022-12-18T02:09:57;91.53;;;41.72;;
69951;SDS011;60406;48.408;13.392;2022-12-18T02:15:00;92.68;;;41.40;;
69951;SDS011;60406;48.408;13.392;2022-12-18T02:20:19;97.45;;;43.70;;
69951;SDS011;60406;48.408;13.392;2022-12-18T02:31:11;100.82;;;42.08;;
69951;SDS011;60406;48.408;13.392;2022-12-18T02:36:15;73.35;;;33.05;;
69951;SDS011;60406;48.408;13.392;2022-12-18T02:41:17;89.88;;;37.70;;
69951;SDS011;60406;48.408;13.392;2022-12-18T02:46:25;102.22;;;37.42;;
69951;SDS011;60406;48.408;13.392;2022-12-18T02:57:12;90.72;;;38.72;;
69951;SDS011;60406;48.408;13.392;2022-12-18T03:02:20;96.82;;;40.13;;
69951;SDS011;60406;48.408;13.392;2022-12-18T03:07:26;96.47;;;41.00;;
69951;SDS011;60406;48.408;13.392;2022-12-18T03:12:38;93.32;;;40.20;;
69951;SDS011;60406;48.408;13.392;2022-12-18T03:17:43;100.93;;;40.95;;
69951;SDS011;60406;48.408;13.392;2022-12-18T03:22:48;103.68;;;41.13;;
69951;SDS011;60406;48.408;13.392;2022-12-18T03:32:58;89.72;;;38.83;;
69951;SDS011;60406;48.408;13.392;2022-12-18T03:38:03;95.95;;;39.88;;
69951;SDS011;60406;48.408;13.392;2022-12-18T03:43:08;96.65;;;40.17;;
69951;SDS011;60406;48.408;13.392;2022-12-18T03:58:23;88.32;;;38.95;;
69951;SDS011;60406;48.408;13.392;2022-12-18T04:03:25;93.35;;;37.10;;
69951;SDS011;60406;48.408;13.392;2022-12-18T04:08:26;71.90;;;31.80;;
69951;SDS011;60406;48.408;13.392;2022-12-18T04:13:29;81.13;;;34.53;;
69951;SDS011;60406;48.408;13.392;2022-12-18T04:18:35;84.10;;;35.22;;
69951;SDS011;60406;48.408;13.392;2022-12-18T04:23:36;98.68;;;39.35;;
69951;SDS011;60406;48.408;13.392;2022-12-18T04:28:37;109.47;;;41.60;;
69951;SDS011;60406;48.408;13.392;2022-12-18T04:33:37;98.65;;;39.03;;
69951;SDS011;60406;48.408;13.392;2022-12-18T04:38:38;82.05;;;35.53;;
69951;SDS011;60406;48.408;13.392;2022-12-18T04:43:39;77.00;;;32.90;;
69951;SDS011;60406;48.408;13.392;2022-12-18T04:48:40;81.68;;;32.75;;
69951;SDS011;60406;48.408;13.392;2022-12-18T04:53:41;81.20;;;30.95;;
69951;SDS011;60406;48.408;13.392;2022-12-18T04:58:42;77.57;;;32.75;;
69951;SDS011;60406;48.408;13.392;2022-12-18T05:03:44;75.85;;;31.85;;
69951;SDS011;60406;48.408;13.392;2022-12-18T05:08:45;81.40;;;35.50;;
69951;SDS011;60406;48.408;13.392;2022-12-18T05:13:46;78.90;;;33.75;;
69951;SDS011;60406;48.408;13.392;2022-12-18T05:18:47;90.13;;;36.53;;
69951;SDS011;60406;48.408;13.392;2022-12-18T05:23:48;77.18;;;32.47;;
69951;SDS011;60406;48.408;13.392;2022-12-18T05:28:49;62.90;;;29.25;;
69951;SDS011;60406;48.408;13.392;2022-12-18T05:33:49;68.93;;;30.10;;
69951;SDS011;60406;48.408;13.392;2022-12-18T05:38:50;76.05;;;29.52;;
69951;SDS011;60406;48.408;13.392;2022-12-18T05:43:51;67.78;;;27.63;;
69951;SDS011;60406;48.408;13.392;2022-12-18T05:48:52;77.53;;;26.85;;
69951;SDS011;60406;48.408;13.392;2022-12-18T05:53:53;67.28;;;26.92;;
69951;SDS011;60406;48.408;13.392;2022-12-18T05:58:54;71.15;;;29.92;;
69951;SDS011;60406;48.408;13.392;2022-12-18T06:03:55;76.18;;;33.58;;
69951;SDS011;60406;48.408;13.392;2022-12-18T06:08:56;75.65;;;33.45;;
69951;SDS011;60406;48.408;13.392;2022-12-18T06:13:57;84.03;;;31.70;;
69951;SDS011;60406;48.408;13.392;2022-12-18T06:18:58;69.82;;;28.60;;
69951;SDS011;60406;48.408;13.392;2022-12-18T06:24:00;75.57;;;31.90;;
69951;SDS011;60406;48.408;13.392;2022-12-18T06:29:01;68.32;;;32.33;;
69951;SDS011;60406;48.408;13.392;2022-12-18T06:34:02;87.45;;;35.00;;
69951;SDS011;60406;48.408;13.392;2022-12-18T06:39:03;91.22;;;38.22;;
69951;SDS011;60406;48.408;13.392;2022-12-18T06:44:04;80.60;;;35.50;;
69951;SDS011;60406;48.408;13.392;2022-12-18T06:49:05;81.45;;;34.63;;
69951;SDS011;60406;48.408;13.392;2022-12-18T06:54:06;68.05;;;30.77;;
69951;SDS011;60406;48.408;13.392;2022-12-18T06:59:07;75.30;;;32.63;;
69951;SDS011;60406;48.408;13.392;2022-12-18T07:04:08;73.22;;;32.25;;
69951;SDS011;60406;48.408;13.392;2022-12-18T07:09:09;60.85;;;28.88;;
69951;SDS011;60406;48.408;13.392;2022-12-18T07:14:09;62.33;;;29.83;;
69951;SDS011;60406;48.408;13.392;2022-12-18T07:19:10;81.88;;;34.53;;
69951;SDS011;60406;48.408;13.392;2022-12-18T07:24:11;71.65;;;32.08;;
69951;SDS011;60406;48.408;13.392;2022-12-18T07:29:12;70.78;;;32.35;;
69951;SDS011;60406;48.408;13.392;2022-12-18T07:34:13;83.95;;;34.67;;
69951;SDS011;60406;48.408;13.392;2022-12-18T07:39:14;68.70;;;31.48;;
69951;SDS011;60406;48.408;13.392;2022-12-18T07:44:15;63.58;;;29.63;;
69951;SDS011;60406;48.408;13.392;2022-12-18T07:49:16;67.25;;;30.75;;
69951;SDS011;60406;48.408;13.392;2022-12-18T07:54:17;68.05;;;31.55;;
69951;SDS011;60406;48.408;13.392;2022-12-18T07:59:18;66.75;;;29.77;;
69951;SDS011;60406;48.408;13.392;2022-12-18T08:04:19;80.00;;;31.65;;
69951;SDS011;60406;48.408;13.392;2022-12-18T08:09:19;64.18;;;29.98;;
69951;SDS011;60406;48.408;13.392;2022-12-18T08:14:20;75.75;;;32.85;;
69951;SDS011;60406;48.408;13.392;2022-12-18T08:19:21;73.15;;;31.55;;
69951;SDS011;60406;48.408;13.392;2022-12-18T08:24:22;76.25;;;34.38;;
69951;SDS011;60406;48.408;13.392;2022-12-18T08:29:23;74.18;;;32.40;;
69951;SDS011;60406;48.408;13.392;2022-12-18T08:34:24;76.13;;;31.17;;
69951;SDS011;60406;48.408;13.392;2022-12-18T08:39:25;79.07;;;31.90;;
69951;SDS011;60406;48.408;13.392;2022-12-18T08:44:25;67.70;;;31.85;;
69951;SDS011;60406;48.408;13.392;2022-12-18T08:49:26;67.10;;;29.90;;
69951;SDS011;60406;48.408;13.392;2022-12-18T08:54:27;65.53;;;29.40;;
69951;SDS011;60406;48.408;13.392;2022-12-18T08:59:28;60.75;;;26.15;;
69951;SDS011;60406;48.408;13.392;2022-12-18T09:04:29;49.28;;;23.70;;
69951;SDS011;60406;48.408;13.392;2022-12-18T09:09:30;56.88;;;28.13;;
69951;SDS011;60406;48.408;13.392;2022-12-18T09:14:31;58.65;;;26.75;;
69951;SDS011;60406;48.408;13.392;2022-12-18T09:19:32;55.67;;;28.58;;
69951;SDS011;60406;48.408;13.392;2022-12-18T09:24:32;55.53;;;25.77;;
69951;SDS011;60406;48.408;13.392;2022-12-18T09:29:33;46.13;;;23.45;;
69951;SDS011;60406;48.408;13.392;2022-12-18T09:34:34;55.50;;;24.77;;
69951;SDS011;60406;48.408;13.392;2022-12-18T09:39:35;52.78;;;25.70;;
69951;SDS011;60406;48.408;13.392;2022-12-18T09:44:39;52.95;;;27.02;;
69951;SDS011;60406;48.408;13.392;2022-12-18T09:49:43;53.28;;;28.17;;
69951;SDS011;60406;48.408;13.392;2022-12-18T09:54:50;51.97;;;25.17;;
69951;SDS011;60406;48.408;13.392;2022-12-18T09:59:55;51.45;;;24.52;;
69951;SDS011;60406;48.408;13.392;2022-12-18T10:10:07;50.33;;;25.85;;
69951;SDS011;60406;48.408;13.392;2022-12-18T10:15:19;50.40;;;26.45;;
69951;SDS011;60406;48.408;13.392;2022-12-18T10:20:38;46.20;;;22.83;;
69951;SDS011;60406;48.408;13.392;2022-12-18T10:30:56;53.60;;;25.92;;
69951;SDS011;60406;48.408;13.392;2022-12-18T10:35:58;44.55;;;24.35;;
69951;SDS011;60406;48.408;13.392;2022-12-18T10:46:19;50.13;;;25.95;;
69951;SDS011;60406;48.408;13.392;2022-12-18T10:51:25;48.85;;;25.85;;
69951;SDS011;60406;48.408;13.392;2022-12-18T10:56:31;47.42;;;25.70;;
69951;SDS011;60406;48.408;13.392;2022-12-18T11:06:55;46.38;;;26.77;;
69951;SDS011;60406;48.408;13.392;2022-12-18T11:11:57;49.70;;;26.15;;
69951;SDS011;60406;48.408;13.392;2022-12-18T11:16:59;60.42;;;30.40;;
69951;SDS011;60406;48.408;13.392;2022-12-18T11:22:01;42.38;;;26.85;;
69951;SDS011;60406;48.408;13.392;2022-12-18T11:27:05;41.93;;;22.80;;
69951;SDS011;60406;48.408;13.392;2022-12-18T11:37:31;36.20;;;23.17;;
69951;SDS011;60406;48.408;13.392;2022-12-18T11:42:35;35.13;;;22.65;;
69951;SDS011;60406;48.408;13.392;2022-12-18T11:47:44;34.00;;;23.08;;
69951;SDS011;60406;48.408;13.392;2022-12-18T11:52:48;34.13;;;24.17;;
69951;SDS011;60406;48.408;13.392;2022-12-18T12:13:37;29.83;;;22.30;;
69951;SDS011;60406;48.408;13.392;2022-12-18T12:34:21;27.88;;;19.92;;
69951;SDS011;60406;48.408;13.392;2022-12-18T12:39:27;27.35;;;19.70;;
69951;SDS011;60406;48.408;13.392;2022-12-18T12:44:45;27.80;;;21.40;;
69951;SDS011;60406;48.408;13.392;2022-12-18T12:49:49;29.08;;;20.80;;
69951;SDS011;60406;48.408;13.392;2022-12-18T12:54:50;27.92;;;22.08;;
69951;SDS011;60406;48.408;13.392;2022-12-18T13:05:30;28.92;;;22.05;;
69951;SDS011;60406;48.408;13.392;2022-12-18T13:10:36;34.88;;;22.25;;
69951;SDS011;60406;48.408;13.392;2022-12-18T13:20:40;29.10;;;21.02;;
69951;SDS011;60406;48.408;13.392;2022-12-18T13:25:54;28.80;;;22.33;;
69951;SDS011;60406;48.408;13.392;2022-12-18T13:30:56;37.30;;;27.90;;
69951;SDS011;60406;48.408;13.392;2022-12-18T13:36:02;31.83;;;23.42;;
69951;SDS011;60406;48.408;13.392;2022-12-18T13:46:29;36.55;;;24.95;;
69951;SDS011;60406;48.408;13.392;2022-12-18T13:51:51;35.05;;;23.52;;
69951;SDS011;60406;48.408;13.392;2022-12-18T13:56:54;38.70;;;23.57;;
69951;SDS011;60406;48.408;13.392;2022-12-18T14:01:56;36.22;;;25.15;;
69951;SDS011;60406;48.408;13.392;2022-12-18T14:07:01;39.88;;;23.00;;
69951;SDS011;60406;48.408;13.392;2022-12-18T14:12:03;36.10;;;23.15;;
69951;SDS011;60406;48.408;13.392;2022-12-18T14:17:07;38.80;;;24.90;;
69951;SDS011;60406;48.408;13.392;2022-12-18T14:22:14;38.55;;;25.00;;
69951;SDS011;60406;48.408;13.392;2022-12-18T14:27:23;39.42;;;24.48;;
69951;SDS011;60406;48.408;13.392;2022-12-18T14:32:25;42.00;;;24.35;;
69951;SDS011;60406;48.408;13.392;2022-12-18T14:37:26;41.70;;;24.95;;
69951;SDS011;60406;48.408;13.392;2022-12-18T14:42:27;41.55;;;25.20;;
69951;SDS011;60406;48.408;13.392;2022-12-18T14:47:28;47.38;;;28.58;;
69951;SDS011;60406;48.408;13.392;2022-12-18T14:52:29;51.42;;;31.20;;
69951;SDS011;60406;48.408;13.392;2022-12-18T14:57:35;58.25;;;33.75;;
69951;SDS011;60406;48.408;13.392;2022-12-18T15:02:37;67.07;;;38.40;;
69951;SDS011;60406;48.408;13.392;2022-12-18T15:07:41;54.55;;;31.75;;
69951;SDS011;60406;48.408;13.392;2022-12-18T15:12:47;55.30;;;29.92;;
69951;SDS011;60406;48.408;13.392;2022-12-18T15:17:48;117.40;;;58.05;;
69951;SDS011;60406;48.408;13.392;2022-12-18T15:22:56;62.92;;;34.75;;
69951;SDS011;60406;48.408;13.392;2022-12-18T15:27:57;55.38;;;32.60;;
69951;SDS011;60406;48.408;13.392;2022-12-18T15:33:22;91.25;;;43.50;;
69951;SDS011;60406;48.408;13.392;2022-12-18T15:38:27;63.42;;;34.00;;
69951;SDS011;60406;48.408;13.392;2022-12-18T15:43:28;72.57;;;38.75;;
69951;SDS011;60406;48.408;13.392;2022-12-18T15:48:29;58.38;;;34.47;;
69951;SDS011;60406;48.408;13.392;2022-12-18T15:53:30;64.65;;;35.38;;
69951;SDS011;60406;48.408;13.392;2022-12-18T15:58:33;53.22;;;30.85;;
69951;SDS011;60406;48.408;13.392;2022-12-18T16:03:33;57.28;;;32.83;;
69951;SDS011;60406;48.408;13.392;2022-12-18T16:08:34;65.90;;;29.48;;
69951;SDS011;60406;48.408;13.392;2022-12-18T16:13:35;61.75;;;33.25;;
69951;SDS011;60406;48.408;13.392;2022-12-18T16:18:36;70.97;;;36.95;;
69951;SDS011;60406;48.408;13.392;2022-12-18T16:23:37;58.20;;;32.65;;
69951;SDS011;60406;48.408;13.392;2022-12-18T16:28:38;62.88;;;33.28;;
69951;SDS011;60406;48.408;13.392;2022-12-18T16:33:39;71.03;;;35.15;;
69951;SDS011;60406;48.408;13.392;2022-12-18T16:38:39;63.17;;;33.63;;
69951;SDS011;60406;48.408;13.392;2022-12-18T16:43:40;62.03;;;32.38;;
69951;SDS011;60406;48.408;13.392;2022-12-18T16:48:41;54.35;;;29.05;;
69951;SDS011;60406;48.408;13.392;2022-12-18T16:53:42;52.15;;;29.33;;
69951;SDS011;60406;48.408;13.392;2022-12-18T16:58:43;46.28;;;23.70;;
69951;SDS011;60406;48.408;13.392;2022-12-18T17:03:44;49.83;;;26.10;;
69951;SDS011;60406;48.408;13.392;2022-12-18T17:08:45;44.22;;;23.30;;
69951;SDS011;60406;48.408;13.392;2022-12-18T17:13:46;51.08;;;27.27;;
69951;SDS011;60406;48.408;13.392;2022-12-18T17:18:47;64.78;;;32.22;;
69951;SDS011;60406;48.408;13.392;2022-12-18T17:23:48;55.00;;;29.55;;
69951;SDS011;60406;48.408;13.392;2022-12-18T17:28:48;57.28;;;28.63;;
69951;SDS011;60406;48.408;13.392;2022-12-18T17:33:49;51.58;;;29.48;;
69951;SDS011;60406;48.408;13.392;2022-12-18T17:38:53;70.65;;;36.92;;
69951;SDS011;60406;48.408;13.392;2022-12-18T17:43:56;73.10;;;36.50;;
69951;SDS011;60406;48.408;13.392;2022-12-18T17:48:58;64.10;;;34.28;;
69951;SDS011;60406;48.408;13.392;2022-12-18T17:54:00;61.97;;;33.97;;
69951;SDS011;60406;48.408;13.392;2022-12-18T17:59:01;62.08;;;32.70;;
69951;SDS011;60406;48.408;13.392;2022-12-18T18:04:02;67.90;;;34.78;;
69951;SDS011;60406;48.408;13.392;2022-12-18T18:09:04;65.25;;;34.35;;
69951;SDS011;60406;48.408;13.392;2022-12-18T18:14:06;61.85;;;32.50;;
69951;SDS011;60406;48.408;13.392;2022-12-18T18:19:15;60.95;;;29.67;;
69951;SDS011;60406;48.408;13.392;2022-12-18T18:24:21;62.60;;;33.47;;
69951;SDS011;60406;48.408;13.392;2022-12-18T18:29:23;74.15;;;37.15;;
69951;SDS011;60406;48.408;13.392;2022-12-18T18:34:26;72.35;;;35.45;;
69951;SDS011;60406;48.408;13.392;2022-12-18T18:39:28;88.32;;;40.53;;
69951;SDS011;60406;48.408;13.392;2022-12-18T18:44:29;57.35;;;30.52;;
69951;SDS011;60406;48.408;13.392;2022-12-18T18:49:30;60.03;;;32.47;;
69951;SDS011;60406;48.408;13.392;2022-12-18T18:54:31;54.85;;;29.35;;
69951;SDS011;60406;48.408;13.392;2022-12-18T18:59:32;59.28;;;30.38;;
69951;SDS011;60406;48.408;13.392;2022-12-18T19:04:33;59.42;;;33.03;;
69951;SDS011;60406;48.408;13.392;2022-12-18T19:09:34;51.88;;;29.45;;
69951;SDS011;60406;48.408;13.392;2022-12-18T19:14:35;53.05;;;27.05;;
69951;SDS011;60406;48.408;13.392;2022-12-18T19:19:35;63.42;;;31.50;;
69951;SDS011;60406;48.408;13.392;2022-12-18T19:24:36;58.05;;;33.58;;
69951;SDS011;60406;48.408;13.392;2022-12-18T19:29:37;54.47;;;29.17;;
69951;SDS011;60406;48.408;13.392;2022-12-18T19:34:38;60.70;;;31.65;;
69951;SDS011;60406;48.408;13.392;2022-12-18T19:39:39;58.78;;;31.15;;
69951;SDS011;60406;48.408;13.392;2022-12-18T19:44:40;67.03;;;33.65;;
69951;SDS011;60406;48.408;13.392;2022-12-18T19:49:41;61.92;;;29.95;;
69951;SDS011;60406;48.408;13.392;2022-12-18T19:54:41;47.10;;;24.75;;
69951;SDS011;60406;48.408;13.392;2022-12-18T19:59:42;55.70;;;29.40;;
69951;SDS011;60406;48.408;13.392;2022-12-18T20:04:43;52.63;;;27.98;;
69951;SDS011;60406;48.408;13.392;2022-12-18T20:09:44;65.20;;;30.98;;
69951;SDS011;60406;48.408;13.392;2022-12-18T20:14:45;59.40;;;31.85;;
69951;SDS011;60406;48.408;13.392;2022-12-18T20:19:46;59.00;;;32.15;;
69951;SDS011;60406;48.408;13.392;2022-12-18T20:24:47;56.90;;;30.55;;
69951;SDS011;60406;48.408;13.392;2022-12-18T20:29:47;57.03;;;29.30;;
69951;SDS011;60406;48.408;13.392;2022-12-18T20:34:48;57.33;;;31.33;;
69951;SDS011;60406;48.408;13.392;2022-12-18T20:39:49;67.85;;;34.30;;
69951;SDS011;60406;48.408;13.392;2022-12-18T20:44:50;55.90;;;28.27;;
69951;SDS011;60406;48.408;13.392;2022-12-18T20:49:51;57.28;;;28.70;;
69951;SDS011;60406;48.408;13.392;2022-12-18T20:54:52;59.63;;;30.80;;
69951;SDS011;60406;48.408;13.392;2022-12-18T20:59:53;53.78;;;26.20;;
69951;SDS011;60406;48.408;13.392;2022-12-18T21:04:54;57.67;;;31.33;;
69951;SDS011;60406;48.408;13.392;2022-12-18T21:09:54;62.35;;;34.17;;
69951;SDS011;60406;48.408;13.392;2022-12-18T21:14:56;60.63;;;30.35;;
69951;SDS011;60406;48.408;13.392;2022-12-18T21:19:57;61.88;;;31.30;;
69951;SDS011;60406;48.408;13.392;2022-12-18T21:24:58;64.35;;;33.90;;
69951;SDS011;60406;48.408;13.392;2022-12-18T21:29:59;72.95;;;36.20;;
69951;SDS011;60406;48.408;13.392;2022-12-18T21:35:00;62.35;;;32.67;;
69951;SDS011;60406;48.408;13.392;2022-12-18T21:40:01;62.45;;;30.80;;
69951;SDS011;60406;48.408;13.392;2022-12-18T21:50:18;60.28;;;29.13;;
69951;SDS011;60406;48.408;13.392;2022-12-18T21:55:19;59.33;;;29.63;;
69951;SDS011;60406;48.408;13.392;2022-12-18T22:00:20;64.70;;;34.03;;
69951;SDS011;60406;48.408;13.392;2022-12-18T22:05:21;55.00;;;28.98;;
69951;SDS011;60406;48.408;13.392;2022-12-18T22:10:21;52.10;;;26.55;;
69951;SDS011;60406;48.408;13.392;2022-12-18T22:15:22;57.08;;;28.30;;
69951;SDS011;60406;48.408;13.392;2022-12-18T22:20:24;70.47;;;32.15;;
69951;SDS011;60406;48.408;13.392;2022-12-18T22:25:25;65.45;;;30.77;;
69951;SDS011;60406;48.408;13.392;2022-12-18T22:30:26;64.93;;;29.42;;
69951;SDS011;60406;48.408;13.392;2022-12-18T22:35:27;65.88;;;32.70;;
69951;SDS011;60406;48.408;13.392;2022-12-18T22:40:28;60.28;;;30.90;;
69951;SDS011;60406;48.408;13.392;2022-12-18T22:45:29;66.95;;;32.55;;
69951;SDS011;60406;48.408;13.392;2022-12-18T22:50:30;68.32;;;31.27;;
69951;SDS011;60406;48.408;13.392;2022-12-18T22:55:30;55.58;;;32.05;;
69951;SDS011;60406;48.408;13.392;2022-12-18T23:00:31;69.80;;;34.60;;
69951;SDS011;60406;48.408;13.392;2022-12-18T23:05:32;62.33;;;29.08;;
69951;SDS011;60406;48.408;13.392;2022-12-18T23:10:36;66.13;;;32.17;;
69951;SDS011;60406;48.408;13.392;2022-12-18T23:15:40;62.83;;;33.78;;
69951;SDS011;60406;48.408;13.392;2022-12-18T23:25:42;55.53;;;26.45;;
69951;SDS011;60406;48.408;13.392;2022-12-18T23:30:43;67.88;;;34.78;;
69951;SDS011;60406;48.408;13.392;2022-12-18T23:35:43;70.10;;;34.63;;
69951;SDS011;60406;48.408;13.392;2022-12-18T23:40:44;70.63;;;34.53;;
69951;SDS011;60406;48.408;13.392;2022-12-18T23:45:45;69.25;;;34.38;;
69951;SDS011;60406;48.408;13.392;2022-12-18T23:50:46;69.65;;;32.20;;
69951;SDS011;60406;48.408;13.392;2022-12-18T23:55:47;73.15;;;32.72;;
